Time;durP1;ratioP1;P1;durP2;ratioP2;P2;SDS_P1;SDS_P2;PMS_P1;PMS_P2;Temp;Humidity;BMP_temperature;BMP_pressure;BME280_temperature;BME280_humidity;BME280_pressure;Samples;Min_cycle;Max_cycle;Signal;HPM_P1;HPM_P2
2021/07/12 00:00:21;;;;;;;28.10;19.73;;;;;;;;;;5022873;28;20018;-86
2021/07/12 00:02:47;;;;;;;26.45;19.17;;;;;;;;;;5022883;28;20022;-87
2021/07/12 00:05:13;;;;;;;25.42;20.50;;;;;;;;;;5020841;28;20081;-87
2021/07/12 00:07:39;;;;;;;28.63;20.88;;;;;;;;;;5022035;28;20034;-86
2021/07/12 00:10:08;;;;;;;28.17;20.83;;;;;;;;;;5022795;28;20057;-86
2021/07/12 00:12:36;;;;;;;25.25;19.85;;;;;;;;;;5024274;28;20029;-86
2021/07/12 00:15:06;;;;;;;30.48;21.70;;;;;;;;;;5023957;28;20485;-87
2021/07/12 00:17:32;;;;;;;32.00;21.02;;;;;;;;;;5027547;28;20040;-87
2021/07/12 00:19:58;;;;;;;29.83;21.10;;;;;;;;;;5026487;28;20025;-86
2021/07/12 00:22:23;;;;;;;27.25;20.42;;;;;;;;;;5029769;28;20061;-86
2021/07/12 00:24:48;;;;;;;27.35;20.67;;;;;;;;;;5029817;28;20026;-87
2021/07/12 00:27:14;;;;;;;29.25;20.95;;;;;;;;;;5028628;28;20029;-87
2021/07/12 00:29:39;;;;;;;27.00;19.85;;;;;;;;;;5029294;28;20018;-87
2021/07/12 00:32:05;;;;;;;31.92;22.25;;;;;;;;;;5028594;28;20028;-86
2021/07/12 00:34:32;;;;;;;28.75;21.02;;;;;;;;;;5026916;28;20113;-86
2021/07/12 00:36:57;;;;;;;29.88;21.27;;;;;;;;;;5027269;28;20087;-86
2021/07/12 00:39:23;;;;;;;24.45;19.88;;;;;;;;;;5027279;28;20022;-86
2021/07/12 00:41:48;;;;;;;32.35;21.13;;;;;;;;;;5032126;28;20022;-87
2021/07/12 00:44:14;;;;;;;31.52;21.77;;;;;;;;;;5030169;28;20029;-87
2021/07/12 00:46:40;;;;;;;25.92;19.70;;;;;;;;;;5027904;28;20041;-85
2021/07/12 00:49:05;;;;;;;30.17;20.52;;;;;;;;;;5029952;28;20049;-86
2021/07/12 00:51:31;;;;;;;28.13;19.75;;;;;;;;;;5033057;28;20036;-86
2021/07/12 00:53:58;;;;;;;24.80;19.77;;;;;;;;;;5030351;28;20026;-86
2021/07/12 00:56:23;;;;;;;27.70;20.88;;;;;;;;;;5030210;28;20048;-87
2021/07/12 00:58:49;;;;;;;31.48;21.50;;;;;;;;;;5029569;28;20469;-86
2021/07/12 01:01:14;;;;;;;29.52;22.25;;;;;;;;;;5031649;28;20033;-85
2021/07/12 01:03:41;;;;;;;32.08;23.65;;;;;;;;;;5035923;28;20045;-87
2021/07/12 01:06:10;;;;;;;32.15;22.63;;;;;;;;;;5031631;28;20024;-87
2021/07/12 01:08:35;;;;;;;34.47;23.40;;;;;;;;;;5031717;28;20030;-87
2021/07/12 01:11:09;;;;;;;30.05;22.38;;;;;;;;;;5028342;28;20098;-87
2021/07/12 01:13:56;;;;;;;32.25;22.10;;;;;;;;;;5027546;28;20025;-85
2021/07/12 01:16:37;;;;;;;29.15;22.17;;;;;;;;;;5027246;28;20018;-86
2021/07/12 01:19:34;;;;;;;34.33;23.10;;;;;;;;;;5027566;28;20022;-86
2021/07/12 01:22:09;;;;;;;42.42;22.98;;;;;;;;;;5027776;28;20065;-86
2021/07/12 01:25:18;;;;;;;28.95;22.23;;;;;;;;;;5028677;28;20055;-87
2021/07/12 01:28:12;;;;;;;31.20;22.13;;;;;;;;;;5027702;28;20025;-86
2021/07/12 01:31:14;;;;;;;32.90;22.63;;;;;;;;;;5027164;28;20481;-87
2021/07/12 01:34:01;;;;;;;29.65;22.35;;;;;;;;;;5027738;28;20026;-85
2021/07/12 01:36:58;;;;;;;27.63;21.30;;;;;;;;;;5030165;28;20038;-86
2021/07/12 01:39:34;;;;;;;31.85;22.63;;;;;;;;;;5024907;28;20041;-86
2021/07/12 01:42:12;;;;;;;29.77;23.10;;;;;;;;;;5026624;28;20497;-86
2021/07/12 01:44:52;;;;;;;33.35;24.60;;;;;;;;;;5025389;28;20029;-86
2021/07/12 01:47:37;;;;;;;35.10;25.13;;;;;;;;;;5028254;28;20022;-85
2021/07/12 01:50:05;;;;;;;34.75;24.40;;;;;;;;;;5029572;28;20034;-86
2021/07/12 01:52:38;;;;;;;38.35;23.52;;;;;;;;;;5028954;28;20021;-86
2021/07/12 01:55:15;;;;;;;34.03;23.42;;;;;;;;;;5030670;28;20026;-86
2021/07/12 01:58:02;;;;;;;31.65;22.92;;;;;;;;;;5029114;28;20029;-85
2021/07/12 02:00:29;;;;;;;33.58;24.00;;;;;;;;;;5027972;28;20105;-86
2021/07/12 02:02:56;;;;;;;33.35;22.90;;;;;;;;;;5029202;28;20053;-86
2021/07/12 02:05:26;;;;;;;33.42;22.55;;;;;;;;;;5027102;28;20030;-86
2021/07/12 02:07:54;;;;;;;28.10;22.30;;;;;;;;;;5026567;28;20056;-87
2021/07/12 02:10:23;;;;;;;27.40;22.50;;;;;;;;;;5024595;28;20022;-86
2021/07/12 02:12:51;;;;;;;36.47;23.02;;;;;;;;;;5026266;28;20029;-85
2021/07/12 02:15:18;;;;;;;29.92;22.42;;;;;;;;;;5026968;28;20022;-86
2021/07/12 02:17:46;;;;;;;33.45;22.52;;;;;;;;;;5034313;28;20026;-88
2021/07/12 02:20:13;;;;;;;35.22;23.05;;;;;;;;;;5028360;28;20036;-86
2021/07/12 02:22:40;;;;;;;32.35;23.15;;;;;;;;;;5025746;28;20026;-85
2021/07/12 02:25:09;;;;;;;32.15;24.38;;;;;;;;;;5025540;28;20029;-86
2021/07/12 02:27:35;;;;;;;31.92;25.08;;;;;;;;;;5026108;28;20030;-85
2021/07/12 02:30:03;;;;;;;32.40;24.15;;;;;;;;;;5023891;28;20018;-86
2021/07/12 02:32:29;;;;;;;35.50;24.25;;;;;;;;;;5023484;28;20022;-86
2021/07/12 02:34:55;;;;;;;34.78;24.33;;;;;;;;;;5024240;28;20072;-85
2021/07/12 02:37:21;;;;;;;38.13;25.50;;;;;;;;;;5023833;28;20496;-85
2021/07/12 02:39:48;;;;;;;35.33;23.98;;;;;;;;;;5028313;28;20026;-86
2021/07/12 02:42:14;;;;;;;34.55;24.27;;;;;;;;;;5031435;28;20032;-86
2021/07/12 02:44:45;;;;;;;37.05;24.73;;;;;;;;;;5028472;28;20037;-86
2021/07/12 02:47:13;;;;;;;30.92;23.35;;;;;;;;;;5027553;28;20022;-87
2021/07/12 02:49:38;;;;;;;31.75;24.45;;;;;;;;;;5028188;28;20405;-86
2021/07/12 02:52:25;;;;;;;34.28;23.90;;;;;;;;;;5028376;28;20025;-86
2021/07/12 02:54:57;;;;;;;32.80;24.85;;;;;;;;;;5027061;28;20018;-85
2021/07/12 02:57:22;;;;;;;39.63;26.30;;;;;;;;;;5024598;28;20022;-85
2021/07/12 02:59:48;;;;;;;36.13;25.80;;;;;;;;;;5025839;28;20053;-85
2021/07/12 03:02:14;;;;;;;33.70;26.13;;;;;;;;;;5032125;28;20196;-86
2021/07/12 03:04:39;;;;;;;37.13;24.73;;;;;;;;;;5027680;28;20021;-86
2021/07/12 03:07:14;;;;;;;37.33;26.58;;;;;;;;;;5027085;28;20563;-86
2021/07/12 03:09:42;;;;;;;36.72;25.25;;;;;;;;;;5027142;28;20121;-86
2021/07/12 03:12:22;;;;;;;36.67;24.63;;;;;;;;;;5027161;28;20026;-86
2021/07/12 03:14:58;;;;;;;36.33;24.83;;;;;;;;;;5028337;28;20096;-87
2021/07/12 03:17:27;;;;;;;35.28;25.15;;;;;;;;;;5027832;28;20022;-86
2021/07/12 03:19:56;;;;;;;51.70;30.20;;;;;;;;;;5025697;28;20018;-86
2021/07/12 03:22:23;;;;;;;42.25;26.55;;;;;;;;;;5024834;28;20075;-85
2021/07/12 03:24:50;;;;;;;39.97;27.05;;;;;;;;;;5023786;28;20026;-85
2021/07/12 03:27:18;;;;;;;37.22;26.20;;;;;;;;;;5025956;28;20044;-86
2021/07/12 03:29:45;;;;;;;44.15;25.95;;;;;;;;;;5026940;28;20046;-86
2021/07/12 03:32:12;;;;;;;40.30;25.90;;;;;;;;;;5027569;28;20026;-85
2021/07/12 03:34:38;;;;;;;40.17;27.25;;;;;;;;;;5030227;28;20033;-86
2021/07/12 03:37:04;;;;;;;39.83;26.95;;;;;;;;;;5027382;28;20026;-86
2021/07/12 03:39:29;;;;;;;43.03;28.25;;;;;;;;;;5025905;28;20022;-86
2021/07/12 03:41:56;;;;;;;46.05;28.27;;;;;;;;;;5025565;28;20053;-86
2021/07/12 03:44:22;;;;;;;43.55;28.67;;;;;;;;;;5026664;28;20049;-85
2021/07/12 03:46:47;;;;;;;40.17;28.38;;;;;;;;;;5033062;28;20085;-87
2021/07/12 03:49:15;;;;;;;45.28;28.27;;;;;;;;;;5026740;28;20025;-87
2021/07/12 03:51:42;;;;;;;40.42;27.42;;;;;;;;;;5025511;28;20018;-87
2021/07/12 03:54:08;;;;;;;44.67;28.48;;;;;;;;;;5024979;28;20022;-86
2021/07/12 03:56:34;;;;;;;44.35;28.08;;;;;;;;;;5029420;28;20032;-85
2021/07/12 03:59:00;;;;;;;38.70;27.25;;;;;;;;;;5030419;28;20026;-85
2021/07/12 04:01:26;;;;;;;43.78;28.45;;;;;;;;;;5031434;28;20106;-85
2021/07/12 04:03:53;;;;;;;45.33;27.77;;;;;;;;;;5032298;28;20033;-88
2021/07/12 04:06:19;;;;;;;42.20;29.33;;;;;;;;;;5032542;28;20025;-86
2021/07/12 04:08:45;;;;;;;53.42;30.33;;;;;;;;;;5030742;28;20141;-87
2021/07/12 04:11:11;;;;;;;43.30;29.33;;;;;;;;;;5033336;28;20021;-86
2021/07/12 04:13:37;;;;;;;54.47;30.08;;;;;;;;;;5033266;28;20377;-86
2021/07/12 04:16:03;;;;;;;43.78;28.77;;;;;;;;;;5030887;28;20026;-87
2021/07/12 04:18:28;;;;;;;47.72;29.42;;;;;;;;;;5037154;28;20033;-87
2021/07/12 04:20:54;;;;;;;43.60;28.20;;;;;;;;;;5038005;28;20082;-86
2021/07/12 04:23:19;;;;;;;45.50;30.33;;;;;;;;;;5033340;28;20041;-87
2021/07/12 04:25:45;;;;;;;44.78;29.70;;;;;;;;;;5034214;28;20033;-86
2021/07/12 04:28:10;;;;;;;50.60;29.52;;;;;;;;;;5033701;28;20110;-86
2021/07/12 04:30:36;;;;;;;51.00;30.02;;;;;;;;;;5033420;28;20029;-86
2021/07/12 04:33:01;;;;;;;52.40;29.77;;;;;;;;;;5033057;28;20108;-86
2021/07/12 04:35:27;;;;;;;46.35;29.98;;;;;;;;;;5033247;28;20057;-87
2021/07/12 04:37:52;;;;;;;53.30;31.88;;;;;;;;;;5031431;28;20033;-86
2021/07/12 04:40:18;;;;;;;55.00;29.65;;;;;;;;;;5034040;28;20046;-86
2021/07/12 04:42:45;;;;;;;52.20;31.08;;;;;;;;;;5033898;28;20058;-87
2021/07/12 04:45:11;;;;;;;54.20;29.83;;;;;;;;;;5032991;28;20025;-86
2021/07/12 04:47:36;;;;;;;45.72;29.23;;;;;;;;;;5032325;28;20030;-87
2021/07/12 04:50:04;;;;;;;49.90;30.15;;;;;;;;;;5031825;28;20033;-85
2021/07/12 04:52:30;;;;;;;53.55;32.08;;;;;;;;;;5032840;28;20057;-85
2021/07/12 04:54:55;;;;;;;50.58;31.17;;;;;;;;;;5032834;28;20021;-87
2021/07/12 04:57:21;;;;;;;52.65;31.35;;;;;;;;;;5032564;28;20052;-87
2021/07/12 04:59:46;;;;;;;50.38;31.90;;;;;;;;;;5032091;28;20030;-87
2021/07/12 05:02:15;;;;;;;53.47;30.38;;;;;;;;;;5036855;28;20031;-85
2021/07/12 05:04:41;;;;;;;49.25;32.05;;;;;;;;;;5031512;28;20045;-85
2021/07/12 05:07:10;;;;;;;50.03;30.80;;;;;;;;;;5028051;28;20073;-86
2021/07/12 05:09:35;;;;;;;50.15;31.83;;;;;;;;;;5026058;28;20025;-85
2021/07/12 05:12:01;;;;;;;56.47;31.75;;;;;;;;;;5034225;28;20033;-86
2021/07/12 05:14:26;;;;;;;64.15;31.40;;;;;;;;;;5036666;28;20033;-85
2021/07/12 05:16:53;;;;;;;46.15;30.70;;;;;;;;;;5031161;28;20433;-88
2021/07/12 05:19:19;;;;;;;48.95;31.65;;;;;;;;;;5029581;28;20037;-86
2021/07/12 05:21:45;;;;;;;46.83;31.30;;;;;;;;;;5028733;28;20030;-86
2021/07/12 05:24:11;;;;;;;56.25;33.67;;;;;;;;;;5029956;28;20026;-86
2021/07/12 05:26:36;;;;;;;53.42;32.15;;;;;;;;;;5027995;28;20037;-86
2021/07/12 05:29:02;;;;;;;50.22;32.92;;;;;;;;;;5026547;28;20030;-86
2021/07/12 05:31:27;;;;;;;48.03;30.30;;;;;;;;;;5025884;28;20071;-86
2021/07/12 05:33:53;;;;;;;56.22;32.42;;;;;;;;;;5026829;28;20025;-86
2021/07/12 05:36:19;;;;;;;60.35;33.25;;;;;;;;;;5025173;28;20033;-86
2021/07/12 05:38:44;;;;;;;49.67;33.53;;;;;;;;;;5025079;28;20044;-86
2021/07/12 05:41:10;;;;;;;61.53;34.88;;;;;;;;;;5026280;28;20026;-85
2021/07/12 05:43:38;;;;;;;53.03;33.33;;;;;;;;;;5026312;28;20025;-87
2021/07/12 05:46:05;;;;;;;56.53;33.58;;;;;;;;;;5027586;28;20057;-86
2021/07/12 05:48:31;;;;;;;52.72;32.15;;;;;;;;;;5027888;28;20093;-86
2021/07/12 05:50:56;;;;;;;51.33;33.25;;;;;;;;;;5027628;28;20029;-86
2021/07/12 05:53:21;;;;;;;58.25;33.67;;;;;;;;;;5026062;28;20045;-86
2021/07/12 05:55:47;;;;;;;50.03;32.53;;;;;;;;;;5034568;28;20064;-85
2021/07/12 05:58:12;;;;;;;47.65;32.08;;;;;;;;;;5029622;28;20036;-86
2021/07/12 06:00:38;;;;;;;49.35;32.28;;;;;;;;;;5026896;28;20025;-85
2021/07/12 06:03:03;;;;;;;51.70;32.58;;;;;;;;;;5026844;28;20033;-86
2021/07/12 06:05:29;;;;;;;49.60;31.90;;;;;;;;;;5024994;28;20085;-85
2021/07/12 06:07:55;;;;;;;50.30;33.60;;;;;;;;;;5025863;28;20093;-85
2021/07/12 06:10:20;;;;;;;52.63;34.72;;;;;;;;;;5027363;28;20109;-87
2021/07/12 06:12:46;;;;;;;51.40;32.95;;;;;;;;;;5025360;28;20032;-86
2021/07/12 06:15:12;;;;;;;47.90;31.90;;;;;;;;;;5027107;28;20026;-86
2021/07/12 06:17:39;;;;;;;48.60;31.63;;;;;;;;;;5028203;28;20026;-86
2021/07/12 06:20:08;;;;;;;48.38;32.50;;;;;;;;;;5025918;28;20018;-87
2021/07/12 06:22:34;;;;;;;46.75;32.97;;;;;;;;;;5024632;28;20056;-86
2021/07/12 06:25:00;;;;;;;51.33;33.63;;;;;;;;;;5025807;28;20060;-86
2021/07/12 06:27:25;;;;;;;51.25;33.70;;;;;;;;;;5027775;28;20021;-86
2021/07/12 06:29:51;;;;;;;50.22;32.97;;;;;;;;;;5027180;28;20086;-87
2021/07/12 06:32:16;;;;;;;46.20;32.17;;;;;;;;;;5028637;28;20460;-87
2021/07/12 06:34:42;;;;;;;44.22;30.63;;;;;;;;;;5029277;28;20048;-87
2021/07/12 06:37:07;;;;;;;50.00;31.45;;;;;;;;;;5028886;28;20060;-86
2021/07/12 06:39:33;;;;;;;46.42;31.65;;;;;;;;;;5031797;28;20041;-84
2021/07/12 06:41:58;;;;;;;41.92;29.90;;;;;;;;;;5029335;28;20560;-87
2021/07/12 06:44:23;;;;;;;46.80;31.10;;;;;;;;;;5029357;28;20021;-87
2021/07/12 06:46:49;;;;;;;47.25;32.13;;;;;;;;;;5026947;28;20375;-86
2021/07/12 06:49:14;;;;;;;48.03;32.38;;;;;;;;;;5026588;28;20026;-86
2021/07/12 06:51:39;;;;;;;48.92;31.98;;;;;;;;;;5021521;28;20060;-85
2021/07/12 06:54:05;;;;;;;46.00;30.15;;;;;;;;;;5016699;28;20072;-86
2021/07/12 06:56:30;;;;;;;42.70;29.67;;;;;;;;;;5017730;28;20022;-85
2021/07/12 06:58:56;;;;;;;45.60;31.10;;;;;;;;;;5017813;28;20032;-86
2021/07/12 07:01:21;;;;;;;45.67;30.15;;;;;;;;;;5017985;28;20033;-85
2021/07/12 07:03:47;;;;;;;44.25;30.38;;;;;;;;;;5022712;28;20024;-86
2021/07/12 07:06:12;;;;;;;40.70;28.00;;;;;;;;;;5020519;28;20531;-86
2021/07/12 07:08:37;;;;;;;38.90;28.65;;;;;;;;;;5018122;28;20049;-84
2021/07/12 07:11:03;;;;;;;40.60;28.00;;;;;;;;;;5023857;28;20462;-85
2021/07/12 07:13:29;;;;;;;40.83;28.65;;;;;;;;;;5016692;28;20033;-85
2021/07/12 07:15:54;;;;;;;38.00;29.20;;;;;;;;;;5016266;28;20120;-85
2021/07/12 07:18:19;;;;;;;41.10;28.38;;;;;;;;;;5017197;28;20030;-86
2021/07/12 07:20:45;;;;;;;41.95;27.60;;;;;;;;;;5016846;28;20022;-85
2021/07/12 07:23:11;;;;;;;40.17;27.42;;;;;;;;;;5026550;28;20028;-85
2021/07/12 07:25:37;;;;;;;38.42;27.33;;;;;;;;;;5021099;28;20022;-85
2021/07/12 07:28:03;;;;;;;37.63;27.92;;;;;;;;;;5018742;28;20029;-85
2021/07/12 07:30:29;;;;;;;36.58;27.48;;;;;;;;;;5017776;28;20029;-85
2021/07/12 07:32:54;;;;;;;36.65;26.52;;;;;;;;;;5029748;28;20029;-85
2021/07/12 07:35:20;;;;;;;37.03;26.48;;;;;;;;;;5031048;28;20033;-85
2021/07/12 07:37:46;;;;;;;38.40;27.10;;;;;;;;;;5021987;28;20453;-85
2021/07/12 07:40:13;;;;;;;36.00;26.23;;;;;;;;;;5018618;28;20032;-85
2021/07/12 07:42:39;;;;;;;39.35;25.90;;;;;;;;;;5016937;28;20026;-85
2021/07/12 07:45:07;;;;;;;33.83;25.85;;;;;;;;;;5018963;28;20037;-85
2021/07/12 07:47:33;;;;;;;41.47;25.92;;;;;;;;;;5017716;28;20025;-85
2021/07/12 07:49:58;;;;;;;41.90;26.30;;;;;;;;;;5017252;28;20018;-85
2021/07/12 07:52:23;;;;;;;35.03;26.02;;;;;;;;;;5015729;28;20509;-85
2021/07/12 07:54:50;;;;;;;43.03;26.38;;;;;;;;;;5016734;28;20022;-85
2021/07/12 07:57:16;;;;;;;33.63;25.42;;;;;;;;;;5016573;28;20036;-85
2021/07/12 07:59:42;;;;;;;37.38;25.35;;;;;;;;;;5013669;28;20079;-85
2021/07/12 08:02:07;;;;;;;31.88;25.02;;;;;;;;;;5015430;28;20105;-85
2021/07/12 08:04:33;;;;;;;37.60;26.90;;;;;;;;;;5014428;28;20026;-86
2021/07/12 08:06:58;;;;;;;34.60;25.83;;;;;;;;;;5021217;28;20030;-85
2021/07/12 08:09:24;;;;;;;41.63;24.45;;;;;;;;;;5019906;28;20037;-85
2021/07/12 08:11:51;;;;;;;37.88;24.00;;;;;;;;;;5015691;28;20026;-85
2021/07/12 08:14:18;;;;;;;28.63;22.85;;;;;;;;;;5013875;28;20405;-85
2021/07/12 08:16:44;;;;;;;31.35;23.02;;;;;;;;;;5013458;28;20109;-86
2021/07/12 08:19:09;;;;;;;31.67;23.23;;;;;;;;;;5015443;28;20056;-85
2021/07/12 08:21:34;;;;;;;33.28;24.00;;;;;;;;;;5015775;28;20461;-85
2021/07/12 08:24:00;;;;;;;34.80;21.63;;;;;;;;;;5016302;28;20481;-85
2021/07/12 08:26:25;;;;;;;27.38;21.63;;;;;;;;;;5013907;28;20084;-85
2021/07/12 08:28:51;;;;;;;32.03;22.23;;;;;;;;;;5014708;28;20022;-85
2021/07/12 08:31:17;;;;;;;32.45;22.73;;;;;;;;;;5014330;28;20477;-85
2021/07/12 08:33:42;;;;;;;31.38;22.25;;;;;;;;;;5014599;28;20511;-85
2021/07/12 08:36:08;;;;;;;25.98;20.52;;;;;;;;;;5014201;28;20105;-85
2021/07/12 08:38:33;;;;;;;29.08;22.00;;;;;;;;;;5015585;28;20032;-85
2021/07/12 08:40:59;;;;;;;31.80;22.30;;;;;;;;;;5019771;28;20026;-85
2021/07/12 08:43:24;;;;;;;25.73;19.58;;;;;;;;;;5021087;28;20030;-85
2021/07/12 08:45:50;;;;;;;29.00;19.52;;;;;;;;;;5019852;28;20033;-85
2021/07/12 08:48:16;;;;;;;26.67;20.63;;;;;;;;;;5019780;28;20018;-85
2021/07/12 08:50:42;;;;;;;28.75;21.70;;;;;;;;;;5019479;28;20520;-85
2021/07/12 08:53:08;;;;;;;27.67;22.05;;;;;;;;;;5019476;28;20022;-85
2021/07/12 08:55:33;;;;;;;28.27;21.35;;;;;;;;;;5019971;28;20026;-84
2021/07/12 08:57:59;;;;;;;27.60;20.65;;;;;;;;;;5019158;28;20481;-84
2021/07/12 09:00:45;;;;;;;30.92;21.55;;;;;;;;;;5022364;28;20034;-85
2021/07/12 09:03:18;;;;;;;27.15;20.38;;;;;;;;;;5018714;28;20030;-84
2021/07/12 09:06:12;;;;;;;;;;;;;;;;;;5018852;28;20041;-85
2021/07/12 09:08:41;;;;;;;25.42;19.60;;;;;;;;;;5016190;28;19910;-84
2021/07/12 09:11:13;;;;;;;29.30;20.38;;;;;;;;;;5036270;28;20048;-84
2021/07/12 09:14:03;;;;;;;25.17;18.33;;;;;;;;;;5026645;28;20022;-85
2021/07/12 09:16:33;;;;;;;25.88;18.55;;;;;;;;;;5020400;28;20089;-85
2021/07/12 09:19:13;;;;;;;21.55;16.88;;;;;;;;;;5019006;28;20509;-85
2021/07/12 09:21:41;;;;;;;24.50;17.40;;;;;;;;;;5017903;28;20028;-85
2021/07/12 09:24:31;;;;;;;28.85;18.20;;;;;;;;;;5026897;28;20056;-85
2021/07/12 09:27:04;;;;;;;26.27;19.85;;;;;;;;;;5018368;28;20159;-86
2021/07/12 09:29:40;;;;;;;24.73;18.67;;;;;;;;;;5016934;28;20025;-85
2021/07/12 09:32:08;;;;;;;23.45;17.95;;;;;;;;;;5025772;28;20021;-85
2021/07/12 09:34:35;;;;;;;24.10;19.23;;;;;;;;;;5032226;28;20017;-84
2021/07/12 09:37:00;;;;;;;30.13;20.70;;;;;;;;;;5023027;28;20117;-85
2021/07/12 09:39:49;;;;;;;24.40;19.45;;;;;;;;;;5019120;28;20058;-86
2021/07/12 09:42:34;;;;;;;23.45;19.33;;;;;;;;;;5022170;28;20041;-85
2021/07/12 09:45:06;;;;;;;24.50;17.08;;;;;;;;;;5021568;28;20026;-85
2021/07/12 09:47:33;;;;;;;21.15;16.15;;;;;;;;;;5021633;28;20022;-85
2021/07/12 09:50:02;;;;;;;24.63;17.25;;;;;;;;;;5022043;28;20028;-85
2021/07/12 09:52:37;;;;;;;21.23;16.25;;;;;;;;;;5020793;28;20145;-84
2021/07/12 09:55:02;;;;;;;24.90;18.33;;;;;;;;;;5020425;28;20030;-85
2021/07/12 09:57:31;;;;;;;22.20;17.08;;;;;;;;;;5020648;28;20026;-85
2021/07/12 10:00:14;;;;;;;22.92;15.73;;;;;;;;;;5021379;28;20026;-86
2021/07/12 10:02:40;;;;;;;20.25;16.08;;;;;;;;;;5017172;28;20050;-85
2021/07/12 10:05:09;;;;;;;21.23;16.25;;;;;;;;;;5001624;28;20101;-86
2021/07/12 10:07:34;;;;;;;25.73;16.70;;;;;;;;;;5002121;28;20374;-85
2021/07/12 10:10:03;;;;;;;19.80;16.00;;;;;;;;;;4999047;28;20088;-85
2021/07/12 10:12:28;;;;;;;22.35;17.35;;;;;;;;;;5001991;28;20036;-86
2021/07/12 10:14:55;;;;;;;22.85;16.20;;;;;;;;;;5000754;28;20026;-85
2021/07/12 10:17:21;;;;;;;17.42;14.82;;;;;;;;;;5000678;28;20053;-85
2021/07/12 10:19:46;;;;;;;17.50;15.05;;;;;;;;;;5004220;28;20037;-85
2021/07/12 10:22:13;;;;;;;18.42;15.77;;;;;;;;;;5002066;28;20026;-84
2021/07/12 10:24:47;;;;;;;18.27;14.80;;;;;;;;;;5000154;28;20056;-85
2021/07/12 10:27:27;;;;;;;18.35;14.90;;;;;;;;;;5000921;28;20026;-85
2021/07/12 10:29:57;;;;;;;19.23;14.13;;;;;;;;;;5000115;28;20018;-86
2021/07/12 10:32:24;;;;;;;18.75;15.70;;;;;;;;;;4998744;28;20037;-85
2021/07/12 10:34:54;;;;;;;16.98;14.10;;;;;;;;;;5000322;28;20077;-85
2021/07/12 10:37:38;;;;;;;20.83;15.80;;;;;;;;;;4998890;28;20026;-85
2021/07/12 10:40:08;;;;;;;17.75;13.60;;;;;;;;;;4995255;28;20405;-84
2021/07/12 10:42:46;;;;;;;17.85;14.00;;;;;;;;;;4998114;28;20022;-85
2021/07/12 10:45:12;;;;;;;17.52;13.13;;;;;;;;;;4999281;28;20098;-84
2021/07/12 10:47:43;;;;;;;18.70;14.25;;;;;;;;;;5004567;28;20033;-85
2021/07/12 10:50:33;;;;;;;17.90;14.65;;;;;;;;;;5009347;28;20022;-84
2021/07/12 10:52:58;;;;;;;14.60;12.48;;;;;;;;;;5002196;28;20029;-85
2021/07/12 10:55:34;;;;;;;18.15;14.65;;;;;;;;;;5001474;28;20026;-85
2021/07/12 10:58:17;;;;;;;21.30;13.95;;;;;;;;;;5000355;28;20034;-85
2021/07/12 11:00:43;;;;;;;16.13;14.20;;;;;;;;;;4999664;28;20113;-85
2021/07/12 11:03:49;;;;;;;15.10;12.73;;;;;;;;;;5010131;28;20038;-85
2021/07/12 11:06:24;;;;;;;17.05;13.88;;;;;;;;;;4999722;28;20026;-85
2021/07/12 11:08:52;;;;;;;17.35;12.57;;;;;;;;;;5000187;28;20037;-85
2021/07/12 11:11:20;;;;;;;16.73;13.73;;;;;;;;;;4999756;28;20109;-85
2021/07/12 11:14:00;;;;;;;13.88;11.57;;;;;;;;;;4999283;28;20065;-86
2021/07/12 11:16:40;;;;;;;12.68;11.10;;;;;;;;;;4998418;28;20161;-85
2021/07/12 11:19:31;;;;;;;14.77;12.20;;;;;;;;;;5001139;28;20397;-85
2021/07/12 11:22:14;;;;;;;16.17;11.23;;;;;;;;;;4997965;28;20022;-86
2021/07/12 11:25:01;;;;;;;16.95;12.23;;;;;;;;;;4998459;28;20023;-85
2021/07/12 11:27:41;;;;;;;14.45;11.02;;;;;;;;;;4998555;28;20022;-84
2021/07/12 11:30:36;;;;;;;12.50;9.82;;;;;;;;;;4998303;28;20018;-85
2021/07/12 11:33:01;;;;;;;14.15;10.48;;;;;;;;;;5001074;28;20036;-84
2021/07/12 11:35:27;;;;;;;12.55;10.23;;;;;;;;;;4998674;28;20112;-83
2021/07/12 11:38:01;;;;;;;18.85;12.43;;;;;;;;;;5001982;28;20062;-85
2021/07/12 11:40:26;;;;;;;14.65;11.05;;;;;;;;;;4999182;28;20044;-84
2021/07/12 11:42:51;;;;;;;11.60;9.68;;;;;;;;;;5007208;28;20109;-84
2021/07/12 11:45:19;;;;;;;11.38;10.02;;;;;;;;;;5001741;28;20031;-84
2021/07/12 11:47:52;;;;;;;11.38;10.18;;;;;;;;;;4999512;28;20433;-86
2021/07/12 11:50:29;;;;;;;11.98;9.88;;;;;;;;;;4998825;28;20026;-86
2021/07/12 11:52:58;;;;;;;13.68;9.70;;;;;;;;;;4996795;28;20030;-86
2021/07/12 11:55:25;;;;;;;14.77;10.60;;;;;;;;;;4996587;28;20107;-86
2021/07/12 11:57:55;;;;;;;13.75;8.50;;;;;;;;;;4996650;28;20084;-86
2021/07/12 12:00:32;;;;;;;10.18;8.98;;;;;;;;;;5001997;28;20046;-86
2021/07/12 12:03:01;;;;;;;16.10;10.00;;;;;;;;;;4997463;28;20030;-86
2021/07/12 12:05:28;;;;;;;11.02;8.85;;;;;;;;;;4996589;28;20022;-87
2021/07/12 12:07:57;;;;;;;13.18;9.77;;;;;;;;;;5005625;28;20040;-86
2021/07/12 12:10:27;;;;;;;13.82;10.10;;;;;;;;;;5016033;28;20026;-87
2021/07/12 12:12:58;;;;;;;11.48;10.27;;;;;;;;;;5017169;28;20504;-87
2021/07/12 12:15:33;;;;;;;12.40;10.07;;;;;;;;;;5016322;28;20033;-86
2021/07/12 12:18:09;;;;;;;11.65;10.00;;;;;;;;;;5017352;28;20030;-86
2021/07/12 12:20:38;;;;;;;12.40;9.77;;;;;;;;;;5018288;28;20033;-86
2021/07/12 12:23:10;;;;;;;11.43;10.00;;;;;;;;;;5018606;28;20052;-86
2021/07/12 12:25:43;;;;;;;11.10;9.77;;;;;;;;;;5024686;28;20026;-85
2021/07/12 12:28:09;;;;;;;12.13;8.77;;;;;;;;;;5034980;28;20106;-85
2021/07/12 12:30:36;;;;;;;10.88;8.70;;;;;;;;;;5030799;28;20026;-86
2021/07/12 12:33:02;;;;;;;10.93;9.27;;;;;;;;;;5017807;28;20032;-87
2021/07/12 12:35:31;;;;;;;9.73;8.20;;;;;;;;;;5018114;28;20026;-86
2021/07/12 12:38:14;;;;;;;12.45;9.13;;;;;;;;;;5017890;28;20038;-86
2021/07/12 12:40:40;;;;;;;13.57;8.18;;;;;;;;;;5017664;28;20029;-86
2021/07/12 12:43:17;;;;;;;11.10;8.98;;;;;;;;;;5018804;28;20473;-86
2021/07/12 12:46:03;;;;;;;11.02;9.15;;;;;;;;;;5018720;28;20028;-86
2021/07/12 12:48:38;;;;;;;12.40;9.98;;;;;;;;;;5017154;28;20080;-85
2021/07/12 12:51:20;;;;;;;8.15;7.35;;;;;;;;;;5022683;28;20049;-85
2021/07/12 12:53:55;;;;;;;10.93;9.52;;;;;;;;;;5019630;28;20057;-85
2021/07/12 12:56:21;;;;;;;10.10;8.43;;;;;;;;;;5019056;28;20084;-86
2021/07/12 12:58:46;;;;;;;13.13;8.52;;;;;;;;;;5017957;28;20477;-86
2021/07/12 13:01:11;;;;;;;12.00;8.85;;;;;;;;;;5018324;28;20053;-86
2021/07/12 13:03:37;;;;;;;9.00;8.07;;;;;;;;;;5016812;28;20030;-86
2021/07/12 13:06:03;;;;;;;9.65;7.78;;;;;;;;;;5017151;28;20040;-86
2021/07/12 13:08:29;;;;;;;9.07;7.68;;;;;;;;;;5017747;28;20033;-87
2021/07/12 13:11:01;;;;;;;8.57;7.68;;;;;;;;;;5018146;28;20030;-87
2021/07/12 13:13:28;;;;;;;7.60;6.85;;;;;;;;;;5019416;28;20026;-86
2021/07/12 13:16:03;;;;;;;11.98;7.78;;;;;;;;;;5020041;28;20480;-86
2021/07/12 13:18:31;;;;;;;9.27;8.18;;;;;;;;;;5018935;28;20029;-86
2021/07/12 13:20:56;;;;;;;9.63;8.13;;;;;;;;;;5016890;28;20053;-86
2021/07/12 13:23:28;;;;;;;12.15;8.70;;;;;;;;;;5018780;28;20068;-86
2021/07/12 13:26:07;;;;;;;10.93;8.07;;;;;;;;;;5016929;28;20555;-86
2021/07/12 13:28:33;;;;;;;9.95;7.82;;;;;;;;;;5017837;28;20022;-86
2021/07/12 13:30:59;;;;;;;11.90;8.45;;;;;;;;;;5018081;28;20068;-86
2021/07/12 13:33:27;;;;;;;9.23;7.53;;;;;;;;;;5000838;28;20084;-85
2021/07/12 13:35:52;;;;;;;9.60;8.00;;;;;;;;;;5018957;28;20017;-85
2021/07/12 13:38:18;;;;;;;8.38;7.40;;;;;;;;;;5030975;28;20056;-85
2021/07/12 13:40:46;;;;;;;8.80;6.97;;;;;;;;;;5028997;28;20076;-85
2021/07/12 13:43:12;;;;;;;8.65;7.40;;;;;;;;;;5019940;28;20057;-85
2021/07/12 13:45:38;;;;;;;11.88;7.78;;;;;;;;;;5018026;28;20033;-86
2021/07/12 13:48:04;;;;;;;13.48;6.93;;;;;;;;;;5018477;28;20029;-86
2021/07/12 13:50:30;;;;;;;10.90;7.15;;;;;;;;;;5017653;28;20102;-86
2021/07/12 13:53:03;;;;;;;7.68;6.88;;;;;;;;;;5027288;28;20026;-86
2021/07/12 13:55:30;;;;;;;8.80;7.90;;;;;;;;;;5022811;28;20025;-85
2021/07/12 13:57:57;;;;;;;12.90;7.88;;;;;;;;;;5030513;28;20168;-86
2021/07/12 14:00:28;;;;;;;14.18;8.23;;;;;;;;;;5022538;28;20045;-86
2021/07/12 14:02:54;;;;;;;8.80;7.32;;;;;;;;;;5022977;28;20022;-86
2021/07/12 14:05:20;;;;;;;9.70;7.90;;;;;;;;;;5034378;28;20049;-85
2021/07/12 14:07:46;;;;;;;8.13;7.15;;;;;;;;;;5029614;28;20477;-86
2021/07/12 14:10:15;;;;;;;11.27;8.07;;;;;;;;;;5019942;28;20026;-85
2021/07/12 14:12:43;;;;;;;11.18;7.80;;;;;;;;;;5017013;28;20032;-85
2021/07/12 14:15:14;;;;;;;10.02;7.45;;;;;;;;;;5018928;28;20030;-84
2021/07/12 14:17:40;;;;;;;10.00;7.72;;;;;;;;;;5017921;28;20030;-85
2021/07/12 14:20:07;;;;;;;9.15;8.18;;;;;;;;;;5017409;28;20120;-86
2021/07/12 14:22:33;;;;;;;9.95;8.30;;;;;;;;;;5017595;28;20034;-86
2021/07/12 14:24:59;;;;;;;11.43;7.63;;;;;;;;;;5016011;28;20448;-86
2021/07/12 14:27:24;;;;;;;7.35;6.65;;;;;;;;;;5017489;28;20029;-85
2021/07/12 14:29:50;;;;;;;8.15;6.80;;;;;;;;;;5015720;28;20025;-85
2021/07/12 14:32:16;;;;;;;7.80;7.00;;;;;;;;;;5018895;28;20487;-86